Time;durP1;ratioP1;P1;durP2;ratioP2;P2;SDS_P1;SDS_P2;PMS_P1;PMS_P2;Temp;Humidity;BMP_temperature;BMP_pressure;BME280_temperature;BME280_humidity;BME280_pressure;Samples;Min_cycle;Max_cycle;Signal;HPM_P1;HPM_P2
2023/04/22 00:02:13;;;;;;;4.72;2.63;;;11.50;99.90;;;;;;5021896;28;20058;-87
2023/04/22 00:04:40;;;;;;;1.02;0.85;;;11.50;99.90;;;;;;5038158;28;20103;-86
2023/04/22 00:07:06;;;;;;;1.23;0.80;;;11.40;99.90;;;;;;5038193;28;20056;-85
2023/04/22 00:09:32;;;;;;;0.38;0.38;;;11.40;99.90;;;;;;5038872;28;20049;-86
2023/04/22 00:11:57;;;;;;;0.22;0.22;;;12.30;99.90;;;;;;5038553;28;20052;-83
2023/04/22 00:14:23;;;;;;;0.50;0.50;;;11.40;99.90;;;;;;5037968;28;20116;-86
2023/04/22 00:16:49;;;;;;;0.88;0.82;;;11.40;99.90;;;;;;5036066;28;20385;-86
2023/04/22 00:19:15;;;;;;;0.30;0.30;;;11.40;99.90;;;;;;5020283;28;20045;-83
2023/04/22 00:21:41;;;;;;;0.65;0.65;;;11.30;99.90;;;;;;5018376;28;20140;-86
2023/04/22 00:24:06;;;;;;;0.57;0.50;;;11.20;99.90;;;;;;5037585;28;20110;-83
2023/04/22 00:26:32;;;;;;;0.52;0.52;;;11.20;99.90;;;;;;5037283;28;20045;-85
2023/04/22 00:28:58;;;;;;;0.43;0.43;;;11.20;99.90;;;;;;5037954;28;20068;-86
2023/04/22 00:31:23;;;;;;;0.30;0.30;;;11.10;99.90;;;;;;5037541;28;20484;-87
2023/04/22 00:33:49;;;;;;;0.40;0.40;;;11.00;99.90;;;;;;5037940;28;20407;-87
2023/04/22 00:36:15;;;;;;;0.32;0.32;;;11.00;99.90;;;;;;5037798;28;20049;-86
2023/04/22 00:38:47;;;;;;;0.38;0.38;;;10.90;99.90;;;;;;5037105;28;20403;-87
2023/04/22 00:41:13;;;;;;;0.40;0.40;;;10.90;99.90;;;;;;5037088;28;20050;-85
2023/04/22 00:43:39;;;;;;;0.40;0.40;;;10.80;99.90;;;;;;5036721;28;20060;-86
2023/04/22 00:46:05;;;;;;;0.30;0.30;;;10.70;99.90;;;;;;5020162;28;20064;-86
2023/04/22 00:48:31;;;;;;;0.50;0.50;;;10.70;99.90;;;;;;5038277;28;20057;-85
2023/04/22 00:50:57;;;;;;;0.40;0.40;;;10.50;99.90;;;;;;5054684;28;20049;-85
2023/04/22 00:53:22;;;;;;;0.22;0.22;;;10.50;99.90;;;;;;5037478;28;20499;-85
2023/04/22 00:55:48;;;;;;;0.40;0.40;;;10.30;99.90;;;;;;5036551;28;20050;-86
2023/04/22 00:58:14;;;;;;;0.60;0.60;;;10.20;99.90;;;;;;5053105;28;20152;-86
2023/04/22 01:00:40;;;;;;;;;;;10.20;99.90;;;;;;5036811;28;20068;-87
2023/04/22 01:03:06;;;;;;;0.30;0.30;;;10.10;99.90;;;;;;5053253;28;19921;-86
2023/04/22 01:05:33;;;;;;;0.40;0.40;;;10.00;99.90;;;;;;5019629;28;20056;-84
2023/04/22 01:07:59;;;;;;;0.30;0.30;;;9.90;99.90;;;;;;5037328;28;20072;-84
2023/04/22 01:10:25;;;;;;;0.32;0.32;;;9.80;99.90;;;;;;5037577;28;20472;-87
2023/04/22 01:12:50;;;;;;;0.40;0.40;;;9.80;99.90;;;;;;5020518;28;20133;-86
2023/04/22 01:15:16;;;;;;;0.60;0.60;;;9.70;99.90;;;;;;5037145;28;20600;-85
2023/04/22 01:17:43;;;;;;;0.52;0.52;;;9.60;99.90;;;;;;5036588;28;20045;-84
2023/04/22 01:20:09;;;;;;;0.30;0.30;;;9.50;99.90;;;;;;5036654;28;20057;-86
2023/04/22 01:22:36;;;;;;;;;;;9.50;99.90;;;;;;5037707;28;20114;-85
2023/04/22 01:25:02;;;;;;;0.30;0.30;;;9.40;99.90;;;;;;5037154;28;19921;-86
2023/04/22 01:27:28;;;;;;;0.50;0.50;;;9.40;99.90;;;;;;5053069;28;20155;-84
2023/04/22 01:29:54;;;;;;;0.45;0.45;;;9.40;99.90;;;;;;5035953;28;20129;-86
2023/04/22 01:32:20;;;;;;;;;;;9.30;99.90;;;;;;5036760;28;20219;-85
2023/04/22 01:34:46;;;;;;;0.50;0.50;;;9.30;99.90;;;;;;5036055;28;19929;-86
2023/04/22 01:37:11;;;;;;;0.50;0.50;;;9.30;99.90;;;;;;5036956;28;20532;-83
2023/04/22 01:39:37;;;;;;;0.35;0.35;;;9.40;99.90;;;;;;5037353;28;20129;-85
2023/04/22 01:42:03;;;;;;;0.40;0.40;;;9.40;99.90;;;;;;5037301;28;20088;-85
2023/04/22 01:44:29;;;;;;;0.57;0.57;;;9.30;99.90;;;;;;5036158;28;20045;-84
2023/04/22 01:46:55;;;;;;;0.40;0.40;;;9.30;99.90;;;;;;5036894;28;20132;-84
2023/04/22 01:49:21;;;;;;;0.40;0.40;;;9.30;99.90;;;;;;5037026;28;20053;-87
2023/04/22 01:51:46;;;;;;;0.70;0.70;;;9.30;99.90;;;;;;5020161;28;20138;-87
2023/04/22 01:54:13;;;;;;;0.50;0.50;;;9.20;99.90;;;;;;5036594;28;20045;-85
2023/04/22 01:56:40;;;;;;;0.60;0.60;;;9.20;99.90;;;;;;5036936;28;20057;-86
2023/04/22 01:59:07;;;;;;;0.40;0.40;;;9.20;99.90;;;;;;5021013;28;20166;-85
2023/04/22 02:01:32;;;;;;;0.30;0.30;;;9.10;99.90;;;;;;5037140;28;20038;-85
2023/04/22 02:03:58;;;;;;;0.40;0.40;;;9.00;99.90;;;;;;5037106;28;20462;-86
2023/04/22 02:06:24;;;;;;;0.30;0.30;;;9.00;99.90;;;;;;5036127;28;20136;-86
2023/04/22 02:08:49;;;;;;;0.40;0.40;;;9.00;99.90;;;;;;5020253;28;20049;-85
2023/04/22 02:11:15;;;;;;;0.50;0.50;;;8.90;99.90;;;;;;5002942;28;20049;-82
2023/04/22 02:13:41;;;;;;;1.13;1.08;;;8.80;99.90;;;;;;5035013;28;20046;-85
2023/04/22 02:16:07;;;;;;;0.50;0.50;;;8.70;99.90;;;;;;5004026;28;20482;-86
2023/04/22 02:18:33;;;;;;;0.50;0.50;;;8.70;99.90;;;;;;5019735;28;20075;-85
2023/04/22 02:20:58;;;;;;;0.50;0.50;;;8.60;99.90;;;;;;5036568;28;20512;-85
2023/04/22 02:23:25;;;;;;;0.50;0.50;;;8.50;99.90;;;;;;5037061;28;20128;-86
2023/04/22 02:25:51;;;;;;;0.45;0.45;;;8.50;99.90;;;;;;5036944;28;20152;-86
2023/04/22 02:28:18;;;;;;;1.05;1.05;;;8.40;99.90;;;;;;5037731;28;20049;-83
2023/04/22 02:30:45;;;;;;;0.43;0.43;;;8.40;99.90;;;;;;5036641;28;20434;-85
2023/04/22 02:33:10;;;;;;;0.35;0.35;;;8.30;99.90;;;;;;5036783;28;20124;-84
2023/04/22 02:35:36;;;;;;;0.47;0.47;;;8.30;99.90;;;;;;5035694;28;20048;-84
2023/04/22 02:38:02;;;;;;;0.30;0.30;;;8.30;99.90;;;;;;5036444;28;20485;-86
2023/04/22 02:40:27;;;;;;;0.43;0.43;;;8.30;99.90;;;;;;5037683;28;20049;-86
2023/04/22 02:42:53;;;;;;;0.50;0.50;;;8.20;99.90;;;;;;5039503;28;20129;-86
2023/04/22 02:45:20;;;;;;;1.05;1.05;;;8.20;99.90;;;;;;5039540;28;20096;-82
2023/04/22 02:47:46;;;;;;;0.45;0.45;;;8.20;99.90;;;;;;5038815;28;20141;-86
2023/04/22 02:50:12;;;;;;;0.55;0.55;;;8.10;99.90;;;;;;5039284;28;20081;-86
2023/04/22 02:52:38;;;;;;;0.30;0.30;;;8.10;99.90;;;;;;5039951;28;20054;-86
2023/04/22 02:55:04;;;;;;;0.45;0.45;;;8.10;99.90;;;;;;5038865;28;20060;-82
2023/04/22 02:57:29;;;;;;;0.57;0.57;;;8.10;99.90;;;;;;5037783;28;20052;-85
2023/04/22 03:00:01;;;;;;;0.50;0.50;;;8.00;99.90;;;;;;5040234;28;20595;-87
2023/04/22 03:02:26;;;;;;;0.60;0.60;;;7.90;99.90;;;;;;5039025;28;20087;-86
2023/04/22 03:04:54;;;;;;;0.40;0.40;;;7.90;99.90;;;;;;5040472;28;20041;-86
2023/04/22 03:07:20;;;;;;;0.50;0.50;;;7.80;99.90;;;;;;5039476;28;20132;-84
2023/04/22 03:09:45;;;;;;;0.40;0.40;;;7.80;99.90;;;;;;5039582;28;20092;-86
2023/04/22 03:12:11;;;;;;;0.43;0.43;;;7.70;99.90;;;;;;5039385;28;20100;-85
2023/04/22 03:14:36;;;;;;;0.47;0.47;;;7.70;99.90;;;;;;5040367;28;20113;-85
2023/04/22 03:17:02;;;;;;;0.50;0.50;;;7.60;99.90;;;;;;5042405;28;20452;-84
2023/04/22 03:19:28;;;;;;;0.55;0.55;;;7.60;99.90;;;;;;5041239;28;20076;-85
2023/04/22 03:21:55;;;;;;;1.55;1.15;;;7.60;99.90;;;;;;5042041;28;20049;-84
2023/04/22 03:24:21;;;;;;;0.50;0.50;;;7.50;99.90;;;;;;5058569;28;20061;-84
2023/04/22 03:26:46;;;;;;;0.70;0.70;;;7.50;99.90;;;;;;5043350;28;20049;-84
2023/04/22 03:29:12;;;;;;;0.60;0.60;;;7.50;99.90;;;;;;5021489;28;20095;-86
2023/04/22 03:31:38;;;;;;;0.60;0.60;;;7.50;99.90;;;;;;5037261;28;20396;-85
2023/04/22 03:34:04;;;;;;;0.60;0.60;;;7.40;99.90;;;;;;5036737;28;20054;-85
2023/04/22 03:36:30;;;;;;;0.52;0.52;;;7.40;99.90;;;;;;5021121;28;20064;-86
2023/04/22 03:38:55;;;;;;;0.50;0.50;;;7.40;99.90;;;;;;5037908;28;20385;-85
2023/04/22 03:41:22;;;;;;;0.43;0.43;;;7.30;99.90;;;;;;5019867;28;20041;-84
2023/04/22 03:43:48;;;;;;;0.60;0.60;;;7.20;99.90;;;;;;5038349;28;20049;-85
2023/04/22 03:46:16;;;;;;;0.47;0.47;;;7.30;99.90;;;;;;5021392;28;20044;-84
2023/04/22 03:48:41;;;;;;;0.50;0.50;;;7.20;99.90;;;;;;5055047;28;20133;-85
2023/04/22 03:51:07;;;;;;;0.52;0.52;;;7.20;99.90;;;;;;5022804;28;20077;-86
2023/04/22 03:53:33;;;;;;;0.50;0.50;;;7.10;99.90;;;;;;5038575;28;20053;-85
2023/04/22 03:55:58;;;;;;;0.50;0.50;;;7.10;99.90;;;;;;5038008;28;20119;-85
2023/04/22 03:58:24;;;;;;;0.50;0.50;;;7.10;99.90;;;;;;5037675;28;20053;-83
2023/04/22 04:00:50;;;;;;;0.57;0.57;;;7.00;99.90;;;;;;5037374;28;20045;-86
2023/04/22 04:03:15;;;;;;;0.52;0.52;;;7.00;99.90;;;;;;5036508;28;20469;-84
2023/04/22 04:05:41;;;;;;;0.40;0.40;;;7.00;99.90;;;;;;5020215;28;20096;-84
2023/04/22 04:08:07;;;;;;;0.45;0.45;;;6.90;99.90;;;;;;5053130;28;20136;-85
2023/04/22 04:10:32;;;;;;;0.50;0.50;;;6.90;99.90;;;;;;5020589;28;20061;-85
2023/04/22 04:12:58;;;;;;;0.52;0.52;;;6.90;99.90;;;;;;5037266;28;20041;-86
2023/04/22 04:15:24;;;;;;;0.50;0.50;;;6.80;99.90;;;;;;5037940;28;20132;-85
2023/04/22 04:17:50;;;;;;;0.40;0.40;;;6.80;99.90;;;;;;5036706;28;20036;-84
2023/04/22 04:20:16;;;;;;;0.50;0.50;;;6.80;99.90;;;;;;5037575;28;20084;-84
2023/04/22 04:22:42;;;;;;;0.50;0.50;;;6.80;99.90;;;;;;5037690;28;20424;-86
2023/04/22 04:25:09;;;;;;;0.57;0.57;;;6.70;99.90;;;;;;5037296;28;20049;-84
2023/04/22 04:27:37;;;;;;;0.90;0.90;;;6.70;99.90;;;;;;5021671;28;20053;-85
2023/04/22 04:30:05;;;;;;;0.40;0.40;;;6.80;99.90;;;;;;5043679;28;20061;-84
2023/04/22 04:32:33;;;;;;;0.45;0.45;;;6.80;99.90;;;;;;5048390;28;20045;-82
2023/04/22 04:35:00;;;;;;;0.50;0.50;;;6.90;99.90;;;;;;5041911;28;20387;-84
2023/04/22 04:37:26;;;;;;;0.57;0.57;;;6.90;99.90;;;;;;5037555;28;20084;-84
2023/04/22 04:39:52;;;;;;;0.60;0.60;;;6.80;99.90;;;;;;5037456;28;20056;-84
2023/04/22 04:42:19;;;;;;;0.80;0.80;;;6.80;99.90;;;;;;5038811;28;20064;-86
2023/04/22 04:44:46;;;;;;;0.60;0.60;;;6.80;99.90;;;;;;5021994;28;20045;-85
2023/04/22 04:47:13;;;;;;;0.45;0.45;;;6.80;99.90;;;;;;5037119;28;20053;-85
2023/04/22 04:49:39;;;;;;;0.73;0.70;;;6.80;99.90;;;;;;5020226;28;20061;-83
2023/04/22 04:52:08;;;;;;;0.68;0.68;;;6.80;99.90;;;;;;5053073;28;20053;-85
2023/04/22 04:54:35;;;;;;;0.40;0.40;;;6.80;99.90;;;;;;5037031;28;20053;-84
2023/04/22 04:57:00;;;;;;;;;;;6.80;99.90;;;;;;5037465;28;20079;-83
2023/04/22 04:59:26;;;;;;;0.40;0.40;;;6.90;99.90;;;;;;5020512;28;20360;-86
2023/04/22 05:01:53;;;;;;;0.40;0.40;;;7.00;99.90;;;;;;5020300;28;20048;-84
2023/04/22 05:04:18;;;;;;;;;;;7.00;99.90;;;;;;5021629;28;20100;-85
2023/04/22 05:06:44;;;;;;;0.32;0.32;;;7.10;99.90;;;;;;5027100;28;19931;-84
2023/04/22 05:09:10;;;;;;;0.50;0.50;;;7.10;99.90;;;;;;5041405;28;20050;-85
2023/04/22 05:11:36;;;;;;;0.50;0.50;;;7.20;99.90;;;;;;5037689;28;20449;-83
2023/04/22 05:14:02;;;;;;;0.50;0.50;;;7.30;99.90;;;;;;5036555;28;20053;-86
2023/04/22 05:16:28;;;;;;;0.60;0.60;;;7.30;99.90;;;;;;5037291;28;20052;-86
2023/04/22 05:18:53;;;;;;;0.40;0.40;;;7.30;99.90;;;;;;5036975;28;20204;-86
2023/04/22 05:21:19;;;;;;;0.30;0.30;;;7.40;99.90;;;;;;5020308;28;20469;-86
2023/04/22 05:23:45;;;;;;;0.47;0.47;;;7.40;99.90;;;;;;5037931;28;20056;-84
2023/04/22 05:26:11;;;;;;;0.40;0.40;;;7.50;99.90;;;;;;5036723;28;20068;-84
2023/04/22 05:28:37;;;;;;;0.43;0.43;;;7.50;99.90;;;;;;5037814;28;20033;-83
2023/04/22 05:31:03;;;;;;;0.63;0.63;;;7.50;99.90;;;;;;5036904;28;20515;-84
2023/04/22 05:33:28;;;;;;;0.32;0.32;;;7.60;99.90;;;;;;5020205;28;20128;-83
2023/04/22 05:35:55;;;;;;;0.50;0.50;;;7.70;99.90;;;;;;5034854;28;20483;-86
2023/04/22 05:38:20;;;;;;;0.60;0.60;;;7.70;99.90;;;;;;5036871;28;20050;-85
2023/04/22 05:40:46;;;;;;;0.57;0.57;;;7.70;99.90;;;;;;5036804;28;20128;-85
2023/04/22 05:43:12;;;;;;;0.60;0.60;;;7.70;99.90;;;;;;5037948;28;20439;-84
2023/04/22 05:45:37;;;;;;;0.40;0.40;;;7.80;99.90;;;;;;5037694;28;20046;-84
2023/04/22 05:48:03;;;;;;;0.40;0.40;;;7.90;99.90;;;;;;5036670;28;20064;-85
2023/04/22 05:50:29;;;;;;;0.50;0.50;;;8.00;99.90;;;;;;5036521;28;20060;-85
2023/04/22 05:52:54;;;;;;;0.40;0.40;;;8.10;99.90;;;;;;5037353;28;20124;-85
2023/04/22 05:55:20;;;;;;;0.40;0.40;;;8.20;99.90;;;;;;5036522;28;20053;-83
2023/04/22 05:57:46;;;;;;;0.40;0.40;;;8.40;99.90;;;;;;5035174;28;20053;-86
2023/04/22 06:00:12;;;;;;;0.50;0.50;;;8.50;99.90;;;;;;5036451;28;20045;-86
2023/04/22 06:02:38;;;;;;;0.40;0.40;;;8.70;99.90;;;;;;5035597;28;20427;-85
2023/04/22 06:05:04;;;;;;;0.40;0.40;;;8.70;99.90;;;;;;5036076;28;20053;-85
2023/04/22 06:07:30;;;;;;;0.52;0.52;;;8.90;99.90;;;;;;5036649;28;20052;-88
2023/04/22 06:09:56;;;;;;;0.50;0.50;;;9.00;99.90;;;;;;5035010;28;20045;-86
2023/04/22 06:12:21;;;;;;;0.30;0.30;;;9.10;99.90;;;;;;5035880;28;20056;-84
2023/04/22 06:14:47;;;;;;;0.40;0.40;;;9.20;99.90;;;;;;5037870;28;20049;-86
2023/04/22 06:17:13;;;;;;;0.43;0.43;;;9.30;99.90;;;;;;5024324;28;20042;-85
2023/04/22 06:19:38;;;;;;;0.43;0.43;;;9.30;99.90;;;;;;5039414;28;20099;-84
2023/04/22 06:22:04;;;;;;;0.73;0.73;;;9.20;99.90;;;;;;5039116;28;20072;-85
2023/04/22 06:24:30;;;;;;;0.43;0.43;;;9.30;99.90;;;;;;5022981;28;20060;-86
2023/04/22 06:26:56;;;;;;;0.40;0.40;;;9.30;99.90;;;;;;5022163;28;20038;-87
2023/04/22 06:29:23;;;;;;;0.55;0.55;;;9.40;99.90;;;;;;5044873;28;20076;-86
2023/04/22 06:31:48;;;;;;;0.57;0.57;;;9.40;99.90;;;;;;5039299;28;20092;-85
2023/04/22 06:34:14;;;;;;;0.60;0.60;;;9.50;99.90;;;;;;5055349;28;20046;-85
2023/04/22 06:36:42;;;;;;;0.60;0.60;;;9.50;99.90;;;;;;5022704;28;20603;-86
2023/04/22 06:39:09;;;;;;;0.30;0.30;;;9.60;99.90;;;;;;5055576;28;20038;-85
2023/04/22 06:41:35;;;;;;;0.40;0.40;;;9.60;99.90;;;;;;5037616;28;20064;-86
2023/04/22 06:44:01;;;;;;;1.00;1.00;;;9.70;99.90;;;;;;5022460;28;20059;-87
2023/04/22 06:46:26;;;;;;;0.63;0.60;;;9.80;99.90;;;;;;5055545;28;20052;-86
2023/04/22 06:48:52;;;;;;;2.30;1.80;;;9.90;99.90;;;;;;5022295;28;20145;-85
2023/04/22 06:51:18;;;;;;;0.93;0.93;;;10.00;99.90;;;;;;5038269;28;20073;-87
2023/04/22 06:53:43;;;;;;;0.55;0.55;;;10.20;99.90;;;;;;5021444;28;20132;-86
2023/04/22 06:56:10;;;;;;;0.80;0.80;;;10.30;99.90;;;;;;5038863;28;20045;-87
2023/04/22 06:58:35;;;;;;;0.60;0.60;;;10.50;99.90;;;;;;5038216;28;20053;-85
2023/04/22 07:01:01;;;;;;;0.70;0.70;;;10.70;99.90;;;;;;5020714;28;20048;-85
2023/04/22 07:03:26;;;;;;;0.30;0.30;;;10.80;99.90;;;;;;5020792;28;20582;-85
2023/04/22 07:05:52;;;;;;;0.52;0.52;;;11.00;99.90;;;;;;5039029;28;20373;-86
2023/04/22 07:08:18;;;;;;;0.28;0.28;;;11.20;99.90;;;;;;5037577;28;20084;-86
2023/04/22 07:10:44;;;;;;;0.40;0.40;;;11.30;99.90;;;;;;5038958;28;20042;-87
2023/04/22 07:13:10;;;;;;;0.52;0.52;;;11.40;99.90;;;;;;5038100;28;20052;-86
2023/04/22 07:15:36;;;;;;;0.30;0.30;;;11.50;99.90;;;;;;5037286;28;20077;-87
2023/04/22 07:18:01;;;;;;;0.28;0.28;;;11.70;99.90;;;;;;5020405;28;20049;-86
2023/04/22 07:20:27;;;;;;;0.52;0.52;;;11.80;99.90;;;;;;5054183;28;20057;-87
2023/04/22 07:22:53;;;;;;;0.28;0.28;;;11.90;99.90;;;;;;5020259;28;20133;-86
2023/04/22 07:25:18;;;;;;;0.50;0.50;;;12.00;99.90;;;;;;5036704;28;20449;-86
2023/04/22 07:27:44;;;;;;;0.63;0.63;;;12.20;99.90;;;;;;5037319;28;20049;-86
2023/04/22 07:30:12;;;;;;;0.30;0.30;;;12.30;99.90;;;;;;4988779;28;20048;-85
2023/04/22 07:32:38;;;;;;;0.25;0.25;;;12.40;99.90;;;;;;5037670;28;20049;-88
2023/04/22 07:35:09;;;;;;;0.30;0.30;;;12.50;99.90;;;;;;5038811;28;20103;-85
2023/04/22 07:37:35;;;;;;;0.40;0.40;;;12.60;99.90;;;;;;5020709;28;20052;-85
2023/04/22 07:40:01;;;;;;;0.57;0.57;;;12.70;99.90;;;;;;5019931;28;20435;-84
2023/04/22 07:42:26;;;;;;;0.77;0.65;;;12.70;99.90;;;;;;5036637;28;20439;-88
2023/04/22 07:44:52;;;;;;;0.38;0.38;;;12.80;99.90;;;;;;5037414;28;20044;-85
2023/04/22 07:47:18;;;;;;;0.28;0.28;;;12.90;99.90;;;;;;5036133;28;20533;-87
2023/04/22 07:49:44;;;;;;;;;;;13.00;99.90;;;;;;5021558;28;20049;-85
2023/04/22 07:52:10;;;;;;;0.45;0.45;;;13.20;99.90;;;;;;5037465;28;19921;-85
2023/04/22 07:54:35;;;;;;;0.52;0.52;;;13.30;99.90;;;;;;5037412;28;20508;-87
2023/04/22 07:57:01;;;;;;;0.30;0.30;;;13.40;99.90;;;;;;5021252;28;20398;-87
2023/04/22 07:59:27;;;;;;;0.28;0.28;;;13.60;99.90;;;;;;5037530;28;20042;-85
2023/04/22 08:01:53;;;;;;;;;;;13.70;99.90;;;;;;5036688;28;20032;-86
2023/04/22 08:04:21;;;;;;;0.40;0.40;;;13.90;99.90;;;;;;5036657;28;19924;-86
2023/04/22 08:06:47;;;;;;;0.55;0.55;;;14.00;99.90;;;;;;5036473;28;20085;-85
2023/04/22 08:09:13;;;;;;;0.30;0.30;;;14.20;99.90;;;;;;5019609;28;20046;-88
2023/04/22 08:11:38;;;;;;;;;;;14.30;99.90;;;;;;5020733;28;20049;-85
2023/04/22 08:14:04;;;;;;;0.30;0.30;;;14.30;99.90;;;;;;5036536;28;19937;-86
2023/04/22 08:16:30;;;;;;;;;;;14.30;99.90;;;;;;5037539;28;20045;-86
2023/04/22 08:18:56;;;;;;;2.00;0.40;;;14.40;99.90;;;;;;5020061;28;19935;-87
2023/04/22 08:21:24;;;;;;;1.45;1.00;;;14.50;99.90;;;;;;5019036;28;20071;-88
2023/04/22 08:23:49;;;;;;;0.68;0.68;;;14.70;99.90;;;;;;5035598;28;20076;-86
2023/04/22 08:26:15;;;;;;;0.20;0.20;;;14.80;99.90;;;;;;5019204;28;20045;-86
2023/04/22 08:28:41;;;;;;;;;;;14.90;99.90;;;;;;5037955;28;20128;-85
2023/04/22 08:31:09;;;;;;;0.30;0.30;;;15.10;99.90;;;;;;5035520;28;19968;-86
2023/04/22 08:33:34;;;;;;;0.52;0.52;;;15.20;99.90;;;;;;5035928;28;20053;-84
2023/04/22 08:36:02;;;;;;;0.40;0.40;;;15.30;99.90;;;;;;5037200;28;20488;-86
2023/04/22 08:38:28;;;;;;;0.25;0.25;;;15.40;99.90;;;;;;5035703;28;20167;-87
2023/04/22 08:40:57;;;;;;;0.30;0.30;;;15.50;99.90;;;;;;5037362;28;20045;-89
2023/04/22 08:43:25;;;;;;;0.50;0.50;;;15.60;99.90;;;;;;5037168;28;20350;-83
2023/04/22 08:45:51;;;;;;;0.43;0.43;;;15.60;99.90;;;;;;5037014;28;20053;-85
2023/04/22 08:48:17;;;;;;;;;;;15.70;99.90;;;;;;5035639;28;20487;-85
2023/04/22 08:50:45;;;;;;;0.45;0.45;;;15.70;99.90;;;;;;5035736;28;20020;-85
2023/04/22 08:53:12;;;;;;;0.38;0.38;;;16.00;99.90;;;;;;5052656;28;20076;-84
2023/04/22 08:55:40;;;;;;;1.55;1.38;;;16.10;99.90;;;;;;5036382;28;20484;-85
2023/04/22 08:58:06;;;;;;;0.63;0.63;;;16.30;99.90;;;;;;5034709;28;20187;-85
2023/04/22 09:00:33;;;;;;;;;;;16.40;99.90;;;;;;5052539;28;20053;-84
2023/04/22 09:03:04;;;;;;;0.65;0.65;;;16.30;99.90;;;;;;5019338;28;20318;-85
2023/04/22 09:05:33;;;;;;;1.45;0.80;;;16.30;99.90;;;;;;5037054;28;20120;-85
2023/04/22 09:07:58;;;;;;;1.08;0.70;;;16.20;99.90;;;;;;5052550;28;20045;-84
2023/04/22 09:10:24;;;;;;;1.48;1.17;;;16.20;99.90;;;;;;5035662;28;20123;-84
2023/04/22 09:12:50;;;;;;;;;;;16.20;99.90;;;;;;5036263;28;20066;-82
2023/04/22 09:15:16;;;;;;;1.65;1.08;;;16.10;99.90;;;;;;5035640;28;19921;-84
2023/04/22 09:17:42;;;;;;;;;;;16.10;99.90;;;;;;5036456;28;20071;-85
2023/04/22 09:20:09;;;;;;;1.40;1.30;;;16.10;99.90;;;;;;5036834;28;19921;-84
2023/04/22 09:22:44;;;;;;;1.40;1.10;;;16.10;99.90;;;;;;5035650;28;20361;-86
2023/04/22 09:25:16;;;;;;;3.38;1.55;;;16.10;99.90;;;;;;5034754;28;20081;-84
2023/04/22 09:27:42;;;;;;;1.25;1.15;;;16.10;99.90;;;;;;5035472;28;20045;-86
2023/04/22 09:30:08;;;;;;;;;;;16.20;99.90;;;;;;5036017;28;20132;-85
2023/04/22 09:32:34;;;;;;;0.88;0.88;;;16.30;99.90;;;;;;5035192;28;20012;-86
2023/04/22 09:35:00;;;;;;;3.05;0.60;;;16.40;99.90;;;;;;5035691;28;20522;-86
2023/04/22 09:37:26;;;;;;;0.32;0.32;;;16.50;99.90;;;;;;5035956;28;20046;-87
2023/04/22 09:39:53;;;;;;;1.08;0.95;;;16.50;99.90;;;;;;5035207;28;20471;-84
2023/04/22 09:42:20;;;;;;;0.60;0.60;;;16.70;99.90;;;;;;5035495;28;20046;-84
2023/04/22 09:44:47;;;;;;;0.43;0.43;;;16.90;99.90;;;;;;5035334;28;20128;-83
2023/04/22 09:47:13;;;;;;;0.73;0.65;;;17.10;99.90;;;;;;5035276;28;20052;-85
2023/04/22 09:49:39;;;;;;;;;;;17.20;99.90;;;;;;5035507;28;20049;-83
2023/04/22 09:52:06;;;;;;;1.10;0.90;;;17.30;99.90;;;;;;5035543;28;19921;-85
2023/04/22 09:54:32;;;;;;;1.25;0.65;;;17.50;99.90;;;;;;5051784;28;20529;-84
2023/04/22 09:56:58;;;;;;;;;;;17.90;99.90;;;;;;5035867;28;20054;-84
2023/04/22 09:59:26;;;;;;;0.25;0.25;;;18.20;99.90;;;;;;5052178;28;19995;-86
2023/04/22 10:01:55;;;;;;;0.68;0.68;;;18.50;99.90;;;;;;5018125;28;20081;-85
2023/04/22 10:04:23;;;;;;;0.22;0.22;;;18.70;99.90;;;;;;5051193;28;20416;-85
2023/04/22 10:06:49;;;;;;;1.30;1.20;;;18.90;99.90;;;;;;5036280;28;20089;-84
2023/04/22 10:09:20;;;;;;;0.73;0.73;;;19.10;99.90;;;;;;5035386;28;20503;-85
2023/04/22 10:11:56;;;;;;;0.60;0.60;;;19.30;99.90;;;;;;5034180;28;20107;-87
2023/04/22 10:14:23;;;;;;;0.75;0.75;;;19.40;99.90;;;;;;5035454;28;20045;-86
2023/04/22 10:16:53;;;;;;;0.30;0.30;;;19.50;99.90;;;;;;5035200;28;20350;-85
2023/04/22 10:19:23;;;;;;;0.70;0.70;;;19.40;99.90;;;;;;5017780;28;20049;-84
2023/04/22 10:22:01;;;;;;;0.88;0.63;;;19.30;99.90;;;;;;5017719;28;20542;-85
2023/04/22 10:24:33;;;;;;;0.90;0.90;;;19.20;99.90;;;;;;5034707;28;20058;-85
2023/04/22 10:27:05;;;;;;;0.93;0.85;;;19.20;99.90;;;;;;5035215;28;20095;-85
2023/04/22 10:29:37;;;;;;;0.45;0.45;;;19.20;99.90;;;;;;5034281;28;20057;-86
2023/04/22 10:32:04;;;;;;;1.10;1.10;;;19.20;99.90;;;;;;5019490;28;20052;-86
2023/04/22 10:34:33;;;;;;;0.73;0.70;;;19.20;99.90;;;;;;5037407;28;20502;-87
2023/04/22 10:37:05;;;;;;;0.70;0.70;;;19.20;99.90;;;;;;5052383;28;20088;-82
2023/04/22 10:39:31;;;;;;;1.48;0.85;;;19.20;99.90;;;;;;5035997;28;20370;-84
2023/04/22 10:42:18;;;;;;;0.50;0.50;;;19.20;99.90;;;;;;5035373;28;20057;-86
2023/04/22 10:44:49;;;;;;;0.20;0.20;;;19.20;99.90;;;;;;5036515;28;20049;-85
2023/04/22 10:47:29;;;;;;;1.13;0.77;;;19.30;99.90;;;;;;5035570;28;20041;-85
2023/04/22 10:50:12;;;;;;;1.33;0.82;;;19.30;99.90;;;;;;5053158;28;20045;-85
2023/04/22 10:52:38;;;;;;;0.30;0.30;;;19.40;99.90;;;;;;5035361;28;20056;-84
2023/04/22 10:55:08;;;;;;;0.30;0.30;;;19.40;99.90;;;;;;5036603;28;20045;-86
2023/04/22 10:57:42;;;;;;;0.63;0.60;;;19.50;99.90;;;;;;5037025;28;20128;-84
2023/04/22 11:00:26;;;;;;;1.08;0.98;;;19.70;99.90;;;;;;5035872;28;20507;-86
2023/04/22 11:03:05;;;;;;;0.50;0.50;;;19.90;99.90;;;;;;5055178;28;20056;-84
2023/04/22 11:05:31;;;;;;;0.98;0.98;;;20.00;99.90;;;;;;5054780;28;20145;-86
2023/04/22 11:08:27;;;;;;;0.95;0.90;;;20.20;99.90;;;;;;5039120;28;20045;-85
2023/04/22 11:11:08;;;;;;;1.70;0.88;;;20.30;99.90;;;;;;5022165;28;20434;-84
2023/04/22 11:13:34;;;;;;;2.85;1.50;;;20.40;99.90;;;;;;5040241;28;20046;-85
2023/04/22 11:16:00;;;;;;;3.28;2.20;;;20.40;99.90;;;;;;5022392;28;20045;-85
2023/04/22 11:18:26;;;;;;;3.83;3.40;;;20.50;99.90;;;;;;5021184;28;20099;-83
2023/04/22 11:20:52;;;;;;;2.55;2.35;;;20.50;99.90;;;;;;5021635;28;20053;-84
2023/04/22 11:23:27;;;;;;;4.88;3.03;;;20.60;99.90;;;;;;5037932;28;20492;-84
2023/04/22 11:25:58;;;;;;;3.30;3.10;;;20.70;99.90;;;;;;5038830;28;20089;-85
2023/04/22 11:28:24;;;;;;;3.40;2.30;;;21.00;99.90;;;;;;5045302;28;20084;-85
2023/04/22 11:30:50;;;;;;;3.33;2.42;;;21.20;99.90;;;;;;5037919;28;20049;-86
2023/04/22 11:33:18;;;;;;;2.30;2.10;;;21.40;99.90;;;;;;5021496;28;20046;-86
2023/04/22 11:35:44;;;;;;;1.95;1.70;;;21.50;99.90;;;;;;5038775;28;20056;-86
2023/04/22 11:38:09;;;;;;;4.07;3.38;;;21.60;99.90;;;;;;5039391;28;20041;-84
2023/04/22 11:40:42;;;;;;;3.25;2.33;;;21.70;99.90;;;;;;5038737;28;20411;-86
2023/04/22 11:43:09;;;;;;;1.27;1.17;;;21.70;99.90;;;;;;5038298;28;20053;-82
2023/04/22 11:45:36;;;;;;;1.83;1.73;;;21.80;99.90;;;;;;5037482;28;20485;-86
2023/04/22 11:48:04;;;;;;;1.17;0.88;;;21.80;99.90;;;;;;5037742;28;20088;-85
2023/04/22 11:50:36;;;;;;;0.90;0.88;;;21.90;99.90;;;;;;5040319;28;20180;-85
2023/04/22 11:53:04;;;;;;;0.75;0.73;;;22.00;99.90;;;;;;5037603;28;20064;-86
2023/04/22 11:55:34;;;;;;;0.55;0.55;;;22.20;99.90;;;;;;5037489;28;20117;-88
2023/04/22 11:58:18;;;;;;;0.38;0.38;;;22.30;99.90;;;;;;5037880;28;20049;-85
2023/04/22 12:00:49;;;;;;;0.45;0.45;;;22.60;99.90;;;;;;5041202;28;20524;-86
2023/04/22 12:03:20;;;;;;;0.65;0.65;;;22.60;99.90;;;;;;5039293;28;20041;-85
2023/04/22 12:05:50;;;;;;;0.40;0.40;;;22.50;99.40;;;;;;5040364;28;20048;-87
2023/04/22 12:08:18;;;;;;;1.88;0.68;;;22.50;99.90;;;;;;5039514;28;20050;-86
2023/04/22 12:10:51;;;;;;;1.98;1.10;;;22.60;99.90;;;;;;5039652;28;20052;-87
2023/04/22 12:13:22;;;;;;;1.17;0.82;;;22.70;99.90;;;;;;5039459;28;20053;-83
2023/04/22 12:15:52;;;;;;;0.30;0.30;;;22.80;99.90;;;;;;5054027;28;20045;-85
2023/04/22 12:18:30;;;;;;;0.50;0.50;;;22.80;99.90;;;;;;5038199;28;20057;-86
2023/04/22 12:21:11;;;;;;;2.17;1.40;;;22.80;99.10;;;;;;5036139;28;20059;-83
2023/04/22 12:23:41;;;;;;;0.38;0.38;;;22.60;99.30;;;;;;5038831;28;20064;-87
2023/04/22 12:26:06;;;;;;;0.85;0.85;;;22.50;96.60;;;;;;5037545;28;20496;-87
2023/04/22 12:28:32;;;;;;;1.88;1.77;;;22.30;99.00;;;;;;5039586;28;20037;-85
2023/04/22 12:30:58;;;;;;;0.32;0.32;;;22.10;99.00;;;;;;5038805;28;20140;-86
2023/04/22 12:33:24;;;;;;;1.48;1.05;;;21.90;99.20;;;;;;5038552;28;20045;-88
2023/04/22 12:35:51;;;;;;;0.75;0.70;;;21.70;99.50;;;;;;5038245;28;20089;-85
2023/04/22 12:38:17;;;;;;;0.30;0.30;;;21.70;97.90;;;;;;5037754;28;20068;-86
2023/04/22 12:40:43;;;;;;;0.77;0.50;;;21.70;99.90;;;;;;5038762;28;20041;-84
2023/04/22 12:43:09;;;;;;;0.65;0.65;;;21.60;99.40;;;;;;5038104;28;20512;-87
2023/04/22 12:45:35;;;;;;;0.35;0.35;;;21.60;99.90;;;;;;5053579;28;20119;-85
2023/04/22 12:48:01;;;;;;;0.73;0.45;;;21.60;99.70;;;;;;5037604;28;20053;-88
2023/04/22 12:50:26;;;;;;;1.17;1.17;;;22.10;99.90;;;;;;5036652;28;20045;-84
2023/04/22 12:52:52;;;;;;;0.20;0.20;;;22.60;98.50;;;;;;5036401;28;20483;-85
2023/04/22 12:55:19;;;;;;;2.08;0.70;;;23.00;99.70;;;;;;5020543;28;20084;-86